Terminal Aerodrome Forecast
Issued by NWS St Louis, MO

Home | Current Version | Previous Version | Text Only | Print | Product List | Glossary On
Versions: 1 2 3 4 5 6 7 8 9 10 11 12 13 14 15 16 17 18 19 20
126
FTUS43 KLSX 190540
TAFCOU
TAF
KCOU 190540Z 1906/2006 18014G24KT P6SM OVC020 WS017/21050KT
     FM191500 19016G27KT P6SM VCTS OVC025CB
     FM191900 19017G26KT P6SM -SHRA VCTS OVC030CB
     FM200000 18015G23KT P6SM -SHRA OVC025=

USA.gov is the U.S. government's official web portal to all federal, state and local government web resources and services.